createdAt,value
2018-10-17T00:00:45.103Z,12.20
2018-10-17T00:03:13.302Z,12.20
2018-10-17T00:05:41.743Z,12.20
2018-10-17T00:08:09.940Z,12.10
2018-10-17T00:10:38.169Z,12.20
2018-10-17T00:13:06.594Z,12.20
2018-10-17T00:15:34.797Z,12.20
2018-10-17T00:18:03.002Z,12.20
2018-10-17T00:20:31.194Z,12.20
2018-10-17T00:22:59.448Z,12.20
2018-10-17T00:25:27.629Z,12.20
2018-10-17T00:27:56.187Z,12.30
2018-10-17T00:30:24.377Z,12.30
2018-10-17T00:32:52.608Z,12.30
2018-10-17T00:35:20.818Z,12.30
2018-10-17T00:37:49.064Z,12.30
2018-10-17T00:40:17.619Z,12.20
2018-10-17T00:42:45.884Z,12.20
2018-10-17T00:45:14.331Z,12.10
2018-10-17T00:47:42.525Z,12.10
2018-10-17T00:50:10.733Z,12.10
2018-10-17T00:52:38.932Z,12.00
2018-10-17T00:55:07.178Z,12.00
2018-10-17T00:57:35.353Z,12.00
2018-10-17T01:00:03.623Z,12.00
2018-10-17T01:02:32.105Z,12.10
2018-10-17T01:05:00.339Z,12.00
2018-10-17T01:07:28.534Z,12.00
2018-10-17T01:09:56.746Z,12.00
2018-10-17T01:12:24.961Z,11.90
2018-10-17T01:14:53.209Z,11.90
2018-10-17T01:17:21.417Z,11.90
2018-10-17T01:19:49.669Z,11.90
2018-10-17T01:22:17.939Z,11.90
2018-10-17T01:24:46.143Z,11.90
2018-10-17T01:27:14.345Z,11.90
2018-10-17T01:29:42.557Z,11.90
2018-10-17T01:32:10.773Z,11.90
2018-10-17T01:34:38.976Z,11.90
2018-10-17T01:37:07.268Z,11.80
2018-10-17T01:39:35.391Z,11.70
2018-10-17T01:42:03.817Z,11.70
2018-10-17T01:44:32.020Z,11.70
2018-10-17T01:47:00.256Z,11.70
2018-10-17T01:49:28.409Z,11.70
2018-10-17T01:51:56.651Z,11.70
2018-10-17T01:54:24.866Z,11.70
2018-10-17T01:56:53.114Z,11.60
2018-10-17T01:59:21.301Z,11.60
2018-10-17T02:01:49.525Z,11.60
2018-10-17T02:04:17.726Z,11.60
2018-10-17T02:06:45.930Z,11.60
2018-10-17T02:09:14.132Z,11.60
2018-10-17T02:11:42.367Z,11.60
2018-10-17T02:14:10.566Z,11.60
2018-10-17T02:16:38.794Z,11.60
2018-10-17T02:19:07.257Z,11.60
2018-10-17T02:21:35.430Z,11.70
2018-10-17T02:24:03.661Z,11.70
2018-10-17T02:26:31.892Z,11.70
2018-10-17T02:29:00.114Z,11.70
2018-10-17T02:31:28.330Z,11.80
2018-10-17T02:33:56.550Z,11.80
2018-10-17T02:36:24.753Z,11.80
2018-10-17T02:38:52.966Z,11.80
2018-10-17T02:41:21.215Z,11.80
2018-10-17T02:43:49.412Z,11.80
2018-10-17T02:46:17.637Z,11.80
2018-10-17T02:48:45.882Z,11.80
2018-10-17T02:51:14.106Z,11.90
2018-10-17T02:53:42.301Z,11.90
2018-10-17T02:56:10.495Z,11.90
2018-10-17T02:58:38.747Z,12.00
2018-10-17T03:01:06.979Z,12.00
2018-10-17T03:06:25.223Z,12.00
2018-10-17T03:08:53.445Z,11.90
2018-10-17T03:11:21.658Z,11.90
2018-10-17T03:13:50.081Z,11.90
2018-10-17T03:16:18.293Z,11.90
2018-10-17T03:18:46.744Z,11.90
2018-10-17T03:21:14.975Z,11.90
2018-10-17T03:23:43.188Z,12.00
2018-10-17T03:26:11.396Z,12.00
2018-10-17T03:28:39.628Z,12.00
2018-10-17T03:31:07.981Z,12.00
2018-10-17T03:33:36.270Z,12.00
2018-10-17T03:36:04.905Z,12.10
2018-10-17T03:38:33.287Z,12.10
2018-10-17T03:41:01.581Z,12.10
2018-10-17T03:46:19.974Z,12.20
2018-10-17T03:48:48.170Z,12.10
2018-10-17T03:51:16.341Z,12.10
2018-10-17T03:53:44.631Z,12.00
2018-10-17T03:56:12.897Z,12.00
2018-10-17T03:58:41.070Z,11.90
2018-10-17T04:01:09.300Z,12.00
2018-10-17T04:03:37.430Z,12.00
2018-10-17T04:06:05.913Z,11.90
2018-10-17T04:08:34.565Z,11.90
2018-10-17T04:11:03.025Z,11.90
2018-10-17T04:13:31.150Z,11.90
2018-10-17T04:15:59.853Z,11.80
2018-10-17T04:18:28.006Z,11.80
2018-10-17T04:20:56.207Z,11.80
2018-10-17T04:23:24.402Z,11.80
2018-10-17T04:25:52.570Z,11.80
2018-10-17T04:28:20.778Z,11.80
2018-10-17T04:30:51.283Z,11.80
2018-10-17T04:33:19.490Z,11.80
2018-10-17T04:35:47.903Z,11.90
2018-10-17T04:38:16.075Z,11.80
2018-10-17T04:40:44.481Z,11.80
2018-10-17T04:43:12.750Z,11.80
2018-10-17T04:45:41.103Z,11.90
2018-10-17T04:48:09.268Z,11.90
2018-10-17T04:50:38.494Z,11.90
2018-10-17T04:53:06.708Z,11.90
2018-10-17T04:55:35.111Z,11.90
2018-10-17T04:58:03.526Z,11.90
2018-10-17T05:00:31.742Z,11.90
2018-10-17T05:02:59.937Z,11.80
2018-10-17T05:05:28.134Z,11.80
2018-10-17T05:07:56.325Z,11.70
2018-10-17T05:10:24.529Z,11.80
2018-10-17T05:12:52.841Z,11.80
2018-10-17T05:15:21.376Z,11.80
2018-10-17T05:17:49.410Z,11.80
2018-10-17T05:20:17.609Z,11.80
2018-10-17T05:22:45.810Z,11.70
2018-10-17T05:25:14.076Z,11.70
2018-10-17T05:27:42.177Z,11.70
2018-10-17T05:30:10.391Z,11.70
2018-10-17T05:32:39.018Z,11.80
2018-10-17T05:35:07.493Z,11.70
2018-10-17T05:37:41.018Z,11.70
2018-10-17T05:40:09.070Z,11.70
2018-10-17T05:42:37.281Z,11.70
2018-10-17T05:45:06.622Z,11.70
2018-10-17T05:47:34.879Z,11.70
2018-10-17T05:50:03.450Z,11.60
2018-10-17T05:52:31.630Z,11.60
2018-10-17T05:55:01.112Z,11.60
2018-10-17T05:57:29.262Z,11.60
2018-10-17T05:59:58.000Z,11.50
2018-10-17T06:02:28.575Z,11.50
2018-10-17T06:04:56.716Z,11.50
2018-10-17T06:07:24.895Z,11.50
2018-10-17T06:09:53.064Z,11.50
2018-10-17T06:12:21.262Z,11.40
2018-10-17T06:14:49.459Z,11.30
2018-10-17T06:17:17.729Z,11.30
2018-10-17T06:19:45.849Z,11.30
2018-10-17T06:22:14.085Z,11.30
2018-10-17T06:24:42.493Z,11.30
2018-10-17T06:27:10.873Z,11.20
2018-10-17T06:29:39.066Z,11.10
2018-10-17T06:32:07.259Z,11.20
2018-10-17T06:34:35.532Z,11.20
2018-10-17T06:37:03.960Z,11.20
2018-10-17T06:39:32.080Z,11.30
2018-10-17T06:42:00.273Z,11.40
2018-10-17T06:44:28.482Z,11.40
2018-10-17T06:46:56.711Z,11.50
2018-10-17T06:49:25.115Z,11.30
2018-10-17T06:51:53.288Z,11.30
2018-10-17T06:54:21.581Z,11.40
2018-10-17T06:56:49.732Z,11.40
2018-10-17T06:59:18.016Z,11.40
2018-10-17T07:01:46.250Z,11.50
2018-10-17T07:04:14.352Z,11.50
2018-10-17T07:06:42.526Z,11.60
2018-10-17T07:09:10.932Z,11.60
2018-10-17T07:11:39.623Z,11.60
2018-10-17T07:14:07.841Z,11.60
2018-10-17T07:16:36.029Z,11.60
2018-10-17T07:19:04.590Z,11.60
2018-10-17T07:21:32.761Z,11.60
2018-10-17T07:24:01.436Z,11.70
2018-10-17T07:26:29.582Z,11.80
2018-10-17T07:28:57.898Z,11.80
2018-10-17T07:31:26.209Z,11.90
2018-10-17T07:33:54.406Z,12.00
2018-10-17T07:36:22.594Z,12.10
2018-10-17T07:38:50.803Z,12.20
2018-10-17T07:41:19.232Z,12.30
2018-10-17T07:43:47.427Z,12.40
2018-10-17T07:46:15.655Z,12.50
2018-10-17T07:48:43.842Z,12.60
2018-10-17T07:51:12.022Z,12.70
2018-10-17T07:53:40.262Z,12.80
2018-10-17T07:56:08.406Z,12.90
2018-10-17T07:58:36.600Z,12.90
2018-10-17T08:01:05.219Z,13.00
2018-10-17T08:03:33.409Z,13.10
2018-10-17T08:06:01.912Z,13.00
2018-10-17T08:08:30.018Z,13.00
2018-10-17T08:10:58.194Z,13.10
2018-10-17T08:13:26.488Z,13.10
2018-10-17T08:15:54.888Z,13.20
2018-10-17T08:18:23.063Z,13.30
2018-10-17T08:20:51.263Z,13.40
2018-10-17T08:23:19.458Z,13.50
2018-10-17T08:25:47.881Z,13.60
2018-10-17T08:28:16.083Z,13.70
2018-10-17T08:30:44.272Z,13.80
2018-10-17T08:33:12.444Z,13.80
2018-10-17T08:35:40.900Z,13.90
2018-10-17T08:38:09.108Z,13.90
2018-10-17T08:40:37.247Z,14.10
2018-10-17T08:43:05.859Z,14.10
2018-10-17T08:45:34.290Z,14.10
2018-10-17T08:48:02.710Z,14.10
2018-10-17T08:50:30.966Z,14.20
2018-10-17T08:52:59.322Z,14.30
2018-10-17T08:55:27.734Z,14.40
2018-10-17T08:57:55.925Z,14.50
2018-10-17T09:00:24.094Z,14.60
2018-10-17T09:02:52.279Z,14.60
2018-10-17T09:05:20.479Z,14.80
2018-10-17T09:07:48.669Z,14.80
2018-10-17T09:10:16.946Z,14.90
2018-10-17T09:12:45.141Z,15.00
2018-10-17T09:15:13.329Z,15.10
2018-10-17T09:17:41.510Z,15.20
2018-10-17T09:20:10.373Z,15.30
2018-10-17T09:22:38.467Z,15.40
2018-10-17T09:25:06.746Z,15.40
2018-10-17T09:27:35.002Z,15.40
2018-10-17T09:30:03.261Z,15.50
2018-10-17T09:32:31.641Z,15.60
2018-10-17T09:34:59.890Z,15.60
2018-10-17T09:37:28.042Z,15.60
2018-10-17T09:39:56.284Z,15.70
2018-10-17T09:42:24.431Z,15.80
2018-10-17T09:44:52.632Z,15.80
2018-10-17T09:47:20.860Z,15.90
2018-10-17T09:49:49.059Z,15.90
2018-10-17T09:52:17.386Z,16.10
2018-10-17T09:54:45.433Z,16.10
2018-10-17T09:57:13.630Z,16.10
2018-10-17T09:59:42.034Z,16.10
2018-10-17T10:02:10.272Z,16.00
2018-10-17T10:04:38.422Z,16.10
2018-10-17T10:07:06.659Z,16.20
2018-10-17T10:09:35.054Z,16.40
2018-10-17T10:12:03.258Z,16.30
2018-10-17T10:14:31.424Z,16.40
2018-10-17T10:16:59.641Z,16.50
2018-10-17T10:19:27.814Z,16.60
2018-10-17T10:21:56.039Z,16.60
2018-10-17T10:27:14.483Z,16.50
2018-10-17T10:29:42.707Z,16.50
2018-10-17T10:32:10.898Z,16.70
2018-10-17T10:34:39.127Z,16.70
2018-10-17T10:37:07.354Z,16.70
2018-10-17T10:39:35.569Z,16.80
2018-10-17T10:44:54.353Z,16.80
2018-10-17T10:47:22.546Z,16.90
2018-10-17T10:49:50.798Z,16.90
2018-10-17T10:52:18.985Z,17.10
2018-10-17T10:54:47.190Z,17.10
2018-10-17T11:00:06.031Z,17.30
2018-10-17T11:02:34.217Z,17.40
2018-10-17T11:05:02.524Z,17.40
2018-10-17T11:07:30.642Z,17.40
2018-10-17T11:09:58.830Z,17.40
2018-10-17T11:12:27.030Z,17.40
2018-10-17T11:14:55.352Z,17.50
2018-10-17T11:17:23.614Z,17.50
2018-10-17T11:19:51.817Z,17.60
2018-10-17T11:22:20.023Z,17.70
2018-10-17T11:24:48.246Z,17.80
2018-10-17T11:27:16.528Z,17.70
2018-10-17T11:29:44.657Z,17.80
2018-10-17T11:32:12.862Z,17.90
2018-10-17T11:34:41.254Z,17.90
2018-10-17T11:37:09.454Z,18.10
2018-10-17T11:39:37.662Z,18.10
2018-10-17T11:42:06.150Z,18.10
2018-10-17T11:44:34.386Z,18.10
2018-10-17T11:47:03.484Z,18.00
2018-10-17T11:49:31.841Z,18.00
2018-10-17T11:52:00.074Z,18.00
2018-10-17T11:54:28.242Z,18.00
2018-10-17T11:56:56.480Z,17.90
2018-10-17T11:59:24.620Z,17.90
2018-10-17T12:01:52.823Z,18.00
2018-10-17T12:04:21.344Z,18.20
2018-10-17T12:06:49.179Z,18.30
2018-10-17T12:09:17.363Z,18.50
2018-10-17T12:11:45.608Z,18.60
2018-10-17T12:14:13.912Z,18.60
2018-10-17T12:16:42.116Z,18.50
2018-10-17T12:25:00.471Z,18.40
2018-10-17T12:27:28.922Z,18.40
2018-10-17T12:29:57.191Z,18.60
2018-10-17T12:32:25.370Z,18.60
2018-10-17T12:34:53.587Z,18.70
2018-10-17T12:37:21.770Z,18.80
2018-10-17T12:39:50.112Z,18.80
2018-10-17T12:42:18.128Z,19.00
2018-10-17T12:44:46.331Z,19.10
2018-10-17T12:47:14.568Z,19.10
2018-10-17T12:49:42.713Z,19.00
2018-10-17T12:52:10.994Z,19.00
2018-10-17T12:54:39.098Z,19.00
2018-10-17T12:57:07.786Z,18.90
2018-10-17T12:59:36.086Z,18.90
2018-10-17T13:02:04.266Z,18.80
2018-10-17T13:04:32.450Z,18.90
2018-10-17T13:07:00.646Z,18.90
2018-10-17T13:09:28.874Z,19.00
2018-10-17T13:11:57.016Z,19.00
2018-10-17T13:14:25.226Z,19.10
2018-10-17T13:16:53.645Z,19.00
2018-10-17T13:19:21.814Z,19.10
2018-10-17T13:21:50.034Z,19.10
2018-10-17T13:24:18.331Z,19.20
2018-10-17T13:26:46.725Z,19.20
2018-10-17T13:29:15.030Z,19.20
2018-10-17T13:31:43.140Z,19.20
2018-10-17T13:34:11.403Z,19.20
2018-10-17T13:36:39.541Z,19.10
2018-10-17T13:39:09.594Z,19.10
2018-10-17T13:41:37.851Z,19.00
2018-10-17T13:44:06.355Z,18.90
2018-10-17T13:46:34.534Z,18.90
2018-10-17T13:49:02.782Z,19.00
2018-10-17T13:51:30.942Z,19.00
2018-10-17T13:53:59.242Z,19.00
2018-10-17T13:56:27.583Z,19.00
2018-10-17T13:58:55.793Z,19.10
2018-10-17T14:01:24.250Z,19.10
2018-10-17T14:03:52.508Z,19.10
2018-10-17T14:06:20.746Z,19.00
2018-10-17T14:08:49.154Z,19.00
2018-10-17T14:11:18.055Z,19.00
2018-10-17T14:13:46.262Z,19.00
2018-10-17T14:16:14.409Z,19.10
2018-10-17T14:18:42.794Z,19.10
2018-10-17T14:21:11.283Z,19.10
2018-10-17T14:23:39.525Z,19.10
2018-10-17T14:26:07.636Z,19.10
2018-10-17T14:28:36.042Z,19.10
2018-10-17T14:31:04.237Z,19.10
2018-10-17T14:33:32.445Z,19.10
2018-10-17T14:36:00.679Z,19.00
2018-10-17T14:38:29.409Z,19.00
2018-10-17T14:40:57.631Z,19.00
2018-10-17T14:43:25.861Z,19.00
2018-10-17T14:45:55.009Z,19.00
2018-10-17T14:48:23.222Z,19.00
2018-10-17T14:50:51.452Z,18.80
2018-10-17T14:53:20.214Z,18.80
2018-10-17T14:55:50.491Z,18.70
2018-10-17T14:58:18.806Z,18.50
2018-10-17T15:00:48.035Z,18.50
2018-10-17T15:03:16.315Z,18.50
2018-10-17T15:05:45.855Z,18.50
2018-10-17T15:08:16.248Z,18.40
2018-10-17T15:10:44.682Z,18.30
2018-10-17T15:13:12.703Z,18.20
2018-10-17T15:15:43.785Z,18.10
2018-10-17T15:18:12.183Z,18.00
2018-10-17T15:20:40.425Z,18.00
2018-10-17T15:23:08.814Z,17.90
2018-10-17T15:25:37.018Z,17.80
2018-10-17T15:28:05.278Z,17.80
2018-10-17T15:30:33.661Z,17.70
2018-10-17T15:33:02.099Z,17.60
2018-10-17T15:35:30.326Z,17.40
2018-10-17T15:37:58.506Z,17.30
2018-10-17T15:40:26.693Z,17.20
2018-10-17T15:42:54.879Z,17.10
2018-10-17T15:45:23.337Z,17.10
2018-10-17T15:47:51.533Z,17.10
2018-10-17T15:50:19.723Z,17.10
2018-10-17T15:52:47.993Z,17.00
2018-10-17T15:55:16.137Z,16.90
2018-10-17T15:57:44.317Z,16.90
2018-10-17T16:00:12.831Z,16.90
2018-10-17T16:02:40.927Z,16.70
2018-10-17T16:05:10.561Z,16.70
2018-10-17T16:07:38.787Z,16.60
2018-10-17T16:10:07.578Z,16.50
2018-10-17T16:12:35.758Z,16.40
2018-10-17T16:15:03.969Z,16.30
2018-10-17T16:17:32.162Z,16.20
2018-10-17T16:20:03.210Z,16.10
2018-10-17T16:22:31.996Z,16.00
2018-10-17T16:25:02.441Z,15.90
2018-10-17T16:27:31.037Z,15.80
2018-10-17T16:30:00.131Z,15.70
2018-10-17T16:32:29.344Z,15.70
2018-10-17T16:34:58.032Z,15.60
2018-10-17T16:37:26.765Z,15.50
2018-10-17T16:45:38.646Z,15.20
2018-10-17T16:48:07.417Z,15.20
2018-10-17T16:50:36.170Z,15.10
2018-10-17T16:53:04.756Z,15.10
2018-10-17T16:55:33.490Z,15.10
2018-10-17T16:58:02.386Z,15.10
2018-10-17T17:00:31.205Z,15.10
2018-10-17T17:02:59.872Z,15.10
2018-10-17T17:05:28.488Z,15.10
2018-10-17T17:07:57.167Z,15.10
2018-10-17T17:10:25.856Z,15.20
2018-10-17T17:12:55.854Z,15.20
2018-10-17T17:15:24.585Z,15.20
2018-10-17T17:17:53.177Z,15.10
2018-10-17T17:20:21.757Z,15.20
2018-10-17T17:22:50.378Z,15.20
2018-10-17T17:25:19.049Z,15.20
2018-10-17T17:27:47.606Z,15.20
2018-10-17T17:30:17.396Z,15.20
2018-10-17T17:32:46.750Z,15.10
2018-10-17T17:35:15.530Z,15.00
2018-10-17T17:37:44.341Z,15.00
2018-10-17T17:40:14.127Z,15.00
2018-10-17T17:42:42.940Z,15.00
2018-10-17T17:45:11.778Z,15.00
2018-10-17T17:47:40.679Z,15.10
2018-10-17T17:50:09.943Z,15.10
2018-10-17T17:52:38.575Z,15.10
2018-10-17T17:55:08.005Z,15.00
2018-10-17T17:57:37.186Z,15.00
2018-10-17T18:00:06.549Z,14.90
2018-10-17T18:02:35.126Z,14.90
2018-10-17T18:05:03.826Z,14.90
2018-10-17T18:07:32.587Z,14.90
2018-10-17T18:10:01.348Z,14.90
2018-10-17T18:12:29.964Z,14.90
2018-10-17T18:14:58.787Z,15.00
2018-10-17T18:17:27.573Z,15.00
2018-10-17T18:19:56.271Z,14.90
2018-10-17T18:22:24.941Z,14.90
2018-10-17T18:24:53.534Z,14.80
2018-10-17T18:27:22.446Z,14.70
2018-10-17T18:29:51.164Z,14.70
2018-10-17T18:32:20.043Z,14.70
2018-10-17T18:34:48.661Z,14.60
2018-10-17T18:37:17.448Z,14.50
2018-10-17T18:39:46.287Z,14.40
2018-10-17T18:42:14.947Z,14.30
2018-10-17T18:44:43.719Z,14.30
2018-10-17T18:47:13.217Z,14.30
2018-10-17T18:49:42.573Z,14.20
2018-10-17T18:52:12.871Z,14.10
2018-10-17T18:54:41.672Z,14.10
2018-10-17T18:57:10.478Z,13.90
2018-10-17T18:59:40.493Z,13.90
2018-10-17T19:04:59.537Z,13.70
2018-10-17T19:07:28.350Z,13.70
2018-10-17T19:09:56.822Z,13.70
2018-10-17T19:12:25.665Z,13.60
2018-10-17T19:14:54.432Z,13.50
2018-10-17T19:17:23.107Z,13.40
2018-10-17T19:19:51.978Z,13.40
2018-10-17T19:22:20.688Z,13.40
2018-10-17T19:24:49.825Z,13.30
2018-10-17T19:27:19.090Z,13.30
2018-10-17T19:29:47.868Z,13.20
2018-10-17T19:32:16.547Z,13.20
2018-10-17T19:34:46.470Z,13.20
2018-10-17T19:37:15.272Z,13.10
2018-10-17T19:39:44.188Z,13.10
2018-10-17T19:42:13.180Z,13.10
2018-10-17T19:44:41.927Z,13.00
2018-10-17T19:47:10.545Z,13.00
2018-10-17T19:49:39.269Z,13.10
2018-10-17T19:52:07.973Z,13.00
2018-10-17T19:54:36.777Z,13.10
2018-10-17T19:57:07.593Z,13.10
2018-10-17T19:59:36.359Z,13.10
2018-10-17T20:02:05.240Z,13.10
2018-10-17T20:04:33.887Z,13.00
2018-10-17T20:07:04.631Z,13.10
2018-10-17T20:09:36.758Z,13.10
2018-10-17T20:12:07.313Z,13.00
2018-10-17T20:14:36.848Z,13.00
2018-10-17T20:17:05.951Z,13.00
2018-10-17T20:19:34.794Z,12.90
2018-10-17T20:22:07.961Z,12.90
2018-10-17T20:24:40.761Z,12.90
2018-10-17T20:27:17.040Z,12.90
2018-10-17T20:29:45.604Z,12.90
2018-10-17T20:32:14.200Z,12.90
2018-10-17T20:34:43.734Z,12.90
2018-10-17T20:37:12.892Z,12.90
2018-10-17T20:39:41.546Z,12.90
2018-10-17T20:45:01.501Z,12.90
2018-10-17T20:53:10.669Z,12.80
2018-10-17T20:55:38.998Z,12.80
2018-10-17T20:58:07.412Z,12.70
2018-10-17T21:00:36.067Z,12.70
2018-10-17T21:03:04.681Z,12.70
2018-10-17T21:05:33.511Z,12.70
2018-10-17T21:08:02.193Z,12.70
2018-10-17T21:10:30.922Z,12.80
2018-10-17T21:12:59.623Z,12.70
2018-10-17T21:15:28.172Z,12.70
2018-10-17T21:17:56.813Z,12.70
2018-10-17T21:20:25.493Z,12.70
2018-10-17T21:22:59.282Z,12.70
2018-10-17T21:25:27.872Z,12.70
2018-10-17T21:27:56.555Z,12.70
2018-10-17T21:30:25.075Z,12.70
2018-10-17T21:32:53.588Z,12.80
2018-10-17T21:35:22.184Z,12.70
2018-10-17T21:37:50.845Z,12.70
2018-10-17T21:40:19.455Z,12.70
2018-10-17T21:42:48.012Z,12.70
2018-10-17T21:45:16.758Z,12.60
2018-10-17T21:47:45.414Z,12.60
2018-10-17T21:50:14.028Z,12.70
2018-10-17T21:52:42.474Z,12.70
2018-10-17T21:55:10.806Z,12.60
2018-10-17T21:57:39.108Z,12.60
2018-10-17T22:00:08.905Z,12.60
2018-10-17T22:02:37.223Z,12.60
2018-10-17T22:05:06.543Z,12.60
2018-10-17T22:07:34.907Z,12.50
2018-10-17T22:10:03.137Z,12.50
2018-10-17T22:12:31.466Z,12.50
2018-10-17T22:14:59.919Z,12.60
2018-10-17T22:17:29.566Z,12.50
2018-10-17T22:19:58.235Z,12.50
2018-10-17T22:22:26.954Z,12.50
2018-10-17T22:24:56.107Z,12.60
2018-10-17T22:27:24.736Z,12.60
2018-10-17T22:29:53.579Z,12.60
2018-10-17T22:32:22.128Z,12.60
2018-10-17T22:34:51.089Z,12.60
2018-10-17T22:37:20.192Z,12.50
2018-10-17T22:39:48.897Z,12.50
2018-10-17T22:42:17.557Z,12.50
2018-10-17T22:44:46.207Z,12.50
2018-10-17T22:47:14.840Z,12.40
2018-10-17T22:49:43.471Z,12.40
2018-10-17T22:52:12.470Z,12.30
2018-10-17T22:54:41.067Z,12.30
2018-10-17T22:57:09.696Z,12.40
2018-10-17T22:59:38.215Z,12.40
2018-10-17T23:02:06.529Z,12.40
2018-10-17T23:04:34.815Z,12.40
2018-10-17T23:07:03.387Z,12.40
2018-10-17T23:09:31.985Z,12.30
2018-10-17T23:12:00.735Z,12.40
2018-10-17T23:14:29.346Z,12.40
2018-10-17T23:16:57.937Z,12.30
2018-10-17T23:19:26.610Z,12.40
2018-10-17T23:21:54.936Z,12.40
2018-10-17T23:24:23.358Z,12.40
2018-10-17T23:26:51.807Z,12.40
2018-10-17T23:29:20.254Z,12.40
2018-10-17T23:31:48.835Z,12.30
2018-10-17T23:34:17.498Z,12.30
2018-10-17T23:36:45.987Z,12.40
2018-10-17T23:39:14.514Z,12.30
2018-10-17T23:41:43.036Z,12.30
2018-10-17T23:44:11.705Z,12.30
2018-10-17T23:46:40.105Z,12.30
2018-10-17T23:49:08.582Z,12.30
2018-10-17T23:51:37.342Z,12.40
2018-10-17T23:54:06.024Z,12.40
2018-10-17T23:56:34.574Z,12.30
2018-10-17T23:59:03.228Z,12.30
